Pagina principale
METAR-TAF:

METAR-TAF

Aeroporti :

Calvinia, Sudafrica

latitudine: 31-28-56S, longitudine: 19-45-43E, altezza: 977 m

Osservazione

Il bollettino è stato emesso 19 ore e 8 minuti fa, alle 09:49 UTC
Vento 4 kt da ovest/sud-ovest
Temperature 23°C
Umidità 23%
Pressione 1019 hPa
Visibilità 10 km o più
nessuna nube inferiore a 1500 m e nessun cumulonembo

METAR: FACV 290949Z 25004KT CAVOK 23/01 Q1019

Ora: 06:57 (04:57 UTC)


TAF: mancante

Osservazioni e previsioni meteorologiche di più di 4000 aeroporti (messaggi METAR e TAF).

Le stazioni disponibili sono rappresentate dai dischi gialli e rossi sulla carta.

Puntare il mouse per vedere il nome della stazione.

Clicca sopra per visualizzare le osservazioni e previsioni meteorologiche.

Per cambiare la mappa : fare clic sui pulsanti verdi con una croce nera per ingrandire, il pulsante verde con un trattino per diminuire, o sulla freccia verde per le mappe adiacenti.


METAR-TAF: